Time;durP1;ratioP1;P1;durP2;ratioP2;P2;SDS_P1;SDS_P2;PMS_P1;PMS_P2;Temp;Humidity;BMP_temperature;BMP_pressure;BME280_temperature;BME280_humidity;BME280_pressure;Samples;Min_cycle;Max_cycle;Signal;HPM_P1;HPM_P2
2022/08/09 04:08:33;;;;;;;0.10;0.10;;;;;;;23.50;65.70;101391.81;5049512;28;20432;-84
2022/08/09 04:10:59;;;;;;;0.28;0.20;;;;;;;23.37;65.71;101376.22;5046398;28;20037;-86
2022/08/09 04:13:24;;;;;;;0.20;0.20;;;;;;;23.64;64.97;101404.59;5062447;28;20055;-85
2022/08/09 04:15:49;;;;;;;0.20;0.20;;;;;;;23.71;64.81;101408.34;5049893;28;20032;-84
2022/08/09 04:18:15;;;;;;;0.10;0.10;;;;;;;24.02;63.26;101395.75;5065678;28;20036;-84
2022/08/09 04:20:41;;;;;;;0.10;0.10;;;;;;;24.34;62.37;101414.88;5049998;28;20526;-84
2022/08/09 04:23:07;;;;;;;0.10;0.10;;;;;;;24.41;62.21;101408.03;5047829;28;20074;-84
2022/08/09 04:25:33;;;;;;;0.88;0.63;;;;;;;24.42;61.39;101401.75;5029293;28;20025;-87
2022/08/09 04:27:58;;;;;;;0.15;0.15;;;;;;;24.45;61.33;101406.75;5029507;28;20033;-84
2022/08/09 04:30:24;;;;;;;0.10;0.10;;;;;;;24.53;60.68;101422.72;5045824;28;20041;-92
2022/08/09 04:32:50;;;;;;;0.25;0.25;;;;;;;24.57;60.45;101421.44;5046209;28;20056;-88
2022/08/09 04:35:15;;;;;;;0.22;0.22;;;;;;;24.57;60.29;101405.56;5036922;28;20036;-93
2022/08/09 04:37:41;;;;;;;0.10;0.10;;;;;;;24.76;59.98;101425.81;5063114;28;20394;-91
2022/08/09 04:40:07;;;;;;;0.30;0.30;;;;;;;24.89;58.70;101424.50;5048351;28;20501;-93
2022/08/09 04:42:33;;;;;;;0.10;0.10;;;;;;;24.78;57.87;101408.81;5048194;28;20410;-91
2022/08/09 04:44:59;;;;;;;0.10;0.10;;;;;;;24.89;59.25;101435.06;5065203;28;20068;-93
2022/08/09 04:47:24;;;;;;;0.30;0.25;;;;;;;24.91;60.38;101428.81;5029001;28;20541;-95
2022/08/09 04:49:50;;;;;;;0.20;0.20;;;;;;;24.86;60.98;101435.34;5044930;28;20032;-94
2022/08/09 04:52:16;;;;;;;0.10;0.10;;;;;;;24.51;61.51;101438.75;5067406;28;20063;-89
2022/08/09 04:54:41;;;;;;;0.10;0.10;;;;;;;24.49;61.48;101429.31;5045832;28;20028;-92
2022/08/09 04:57:07;;;;;;;0.20;0.20;;;;;;;24.51;59.63;101417.59;5012827;28;20029;-84
2022/08/09 04:59:33;;;;;;;0.40;0.32;;;;;;;24.63;59.85;101447.31;5045793;28;20052;-92
2022/08/09 05:01:58;;;;;;;0.28;0.28;;;;;;;24.76;59.17;101437.22;5041348;28;20032;-85
2022/08/09 05:04:24;;;;;;;0.10;0.10;;;;;;;24.76;59.65;101431.94;5043144;28;20051;-88
2022/08/09 05:06:49;;;;;;;0.20;0.20;;;;;;;24.84;58.07;101426.75;5042964;28;20060;-85
2022/08/09 05:09:15;;;;;;;0.20;0.20;;;;;;;24.69;59.13;101444.09;5033927;28;20017;-89
2022/08/09 05:11:41;;;;;;;0.10;0.10;;;;;;;24.56;59.83;101447.06;5043226;28;20044;-90
2022/08/09 05:14:06;;;;;;;0.20;0.20;;;;;;;24.36;59.43;101428.78;5031187;28;20068;-88
2022/08/09 05:16:33;;;;;;;0.25;0.25;;;;;;;24.51;58.96;101454.63;5049906;28;20116;-85
2022/08/09 05:18:59;;;;;;;0.20;0.20;;;;;;;24.53;59.36;101452.66;5037180;28;20031;-86
2022/08/09 05:21:24;;;;;;;0.32;0.30;;;;;;;24.48;59.75;101433.75;5031508;28;20433;-85
2022/08/09 05:23:50;;;;;;;0.20;0.20;;;;;;;24.83;58.88;101459.47;4998828;28;20053;-85
2022/08/09 05:26:16;;;;;;;0.10;0.10;;;;;;;24.64;59.04;101449.00;4998919;28;20400;-89
2022/08/09 05:28:41;;;;;;;0.20;0.20;;;;;;;24.65;59.25;101450.66;4999069;28;20036;-88
2022/08/09 05:31:07;;;;;;;0.17;0.17;;;;;;;24.81;59.55;101466.75;5031895;28;20064;-85
2022/08/09 05:33:33;;;;;;;0.10;0.10;;;;;;;25.00;60.47;101465.81;4998390;28;20033;-89
2022/08/09 05:35:58;;;;;;;0.20;0.20;;;;;;;25.01;61.18;101477.22;5032564;28;20026;-84
2022/08/09 05:38:24;;;;;;;0.40;0.30;;;;;;;24.89;62.10;101474.78;5014870;28;20045;-85
2022/08/09 05:40:49;;;;;;;0.10;0.10;;;;;;;24.93;61.49;101466.53;5014823;28;20028;-87
2022/08/09 05:43:15;;;;;;;0.30;0.30;;;;;;;25.06;61.30;101475.81;5014955;28;20044;-91
2022/08/09 05:45:40;;;;;;;0.10;0.10;;;;;;;24.88;60.77;101462.53;5031177;28;20450;-89
2022/08/09 05:48:06;;;;;;;0.20;0.20;;;;;;;25.13;60.50;101476.06;5014248;28;20482;-91
2022/08/09 05:50:31;;;;;;;0.20;0.20;;;;;;;25.29;59.48;101464.81;5031524;28;20068;-89
2022/08/09 05:52:57;;;;;;;0.22;0.20;;;;;;;25.43;55.67;101466.94;5030786;28;20049;-94
2022/08/09 05:55:22;;;;;;;0.10;0.10;;;;;;;25.78;57.15;101479.38;5033007;28;20033;-90
2022/08/09 05:57:49;;;;;;;0.20;0.20;;;;;;;26.03;56.24;101486.50;5030706;28;20526;-89
2022/08/09 06:00:14;;;;;;;0.17;0.17;;;;;;;26.08;55.32;101482.56;5022776;28;20033;-93
2022/08/09 06:02:40;;;;;;;0.10;0.10;;;;;;;26.07;54.93;101492.34;5027845;28;20024;-94
2022/08/09 06:05:06;;;;;;;0.38;0.25;;;;;;;26.09;54.95;101494.84;5022099;28;20032;-94
2022/08/09 06:07:33;;;;;;;0.25;0.25;;;;;;;26.15;54.62;101488.91;5038430;28;20097;-92
2022/08/09 06:09:59;;;;;;;0.38;0.30;;;;;;;26.27;54.87;101495.63;4998544;28;20091;-90
2022/08/09 06:12:25;;;;;;;0.30;0.22;;;;;;;26.33;54.79;101499.47;5016458;28;20442;-94
2022/08/09 06:14:51;;;;;;;0.40;0.40;;;;;;;26.51;54.61;101503.75;5014443;28;20053;-86
2022/08/09 06:17:16;;;;;;;0.20;0.20;;;;;;;26.63;54.33;101503.47;5014151;28;20052;-84
2022/08/09 06:19:42;;;;;;;0.20;0.20;;;;;;;26.65;53.88;101496.19;5014831;28;20103;-88
2022/08/09 06:22:07;;;;;;;0.10;0.10;;;;;;;26.77;53.60;101501.06;5004514;28;20032;-92
2022/08/09 06:24:33;;;;;;;0.30;0.30;;;;;;;26.77;53.88;101500.22;5033650;28;20021;-88
2022/08/09 06:26:58;;;;;;;0.15;0.15;;;;;;;26.82;52.23;101511.19;5033887;28;20024;-91
2022/08/09 06:29:24;;;;;;;0.20;0.20;;;;;;;26.73;52.83;101509.50;5033987;28;20029;-88
2022/08/09 06:31:49;;;;;;;0.40;0.30;;;;;;;26.80;53.10;101499.91;5016731;28;20155;-95
2022/08/09 06:34:15;;;;;;;0.20;0.20;;;;;;;26.63;51.92;101503.47;5051268;28;20029;-92
2022/08/09 06:36:40;;;;;;;0.10;0.10;;;;;;;26.59;53.17;101503.78;5017618;28;20525;-91
2022/08/09 06:39:09;;;;;;;0.30;0.30;;;;;;;26.82;53.00;101496.09;5012218;28;20444;-86
2022/08/09 06:41:36;;;;;;;0.75;0.52;;;;;;;27.07;52.30;101493.56;5034285;28;20463;-88
2022/08/09 06:44:01;;;;;;;0.22;0.22;;;;;;;27.19;51.06;101512.69;5033269;28;20020;-87
2022/08/09 06:46:27;;;;;;;0.32;0.32;;;;;;;27.24;51.36;101497.09;5016747;28;20029;-87
2022/08/09 06:48:52;;;;;;;0.20;0.20;;;;;;;27.43;50.92;101507.41;5013534;28;20021;-89
2022/08/09 06:51:18;;;;;;;0.28;0.28;;;;;;;27.34;50.62;101493.31;5013873;28;20033;-85
2022/08/09 06:53:43;;;;;;;0.20;0.20;;;;;;;27.47;50.41;101502.63;4997224;28;20021;-89
2022/08/09 06:56:09;;;;;;;0.20;0.20;;;;;;;27.74;50.25;101498.84;5017638;28;20117;-87
2022/08/09 06:58:34;;;;;;;0.20;0.20;;;;;;;27.88;50.22;101485.72;5050193;28;20063;-88
2022/08/09 07:01:00;;;;;;;0.20;0.20;;;;;;;27.91;49.63;101489.84;5049634;28;20025;-85
2022/08/09 07:03:25;;;;;;;0.20;0.20;;;;;;;27.88;50.01;101491.03;5033275;28;20031;-85
2022/08/09 07:05:51;;;;;;;0.20;0.20;;;;;;;28.04;50.07;101503.50;5033248;28;20048;-88
2022/08/09 07:08:16;;;;;;;0.38;0.35;;;;;;;27.86;48.97;101498.34;5032835;28;20096;-86
2022/08/09 07:10:42;;;;;;;0.20;0.20;;;;;;;27.97;49.57;101508.63;5032729;28;20021;-86
2022/08/09 07:13:08;;;;;;;0.20;0.20;;;;;;;27.84;49.75;101483.56;5016797;28;20023;-84
2022/08/09 07:15:33;;;;;;;0.20;0.20;;;;;;;28.00;49.51;101504.81;5049045;28;20033;-86
2022/08/09 07:17:59;;;;;;;0.35;0.35;;;;;;;27.98;49.66;101496.19;5032703;28;20106;-84
2022/08/09 07:20:24;;;;;;;0.57;0.40;;;;;;;27.89;48.76;101497.19;5032940;28;20104;-87
2022/08/09 07:22:51;;;;;;;0.30;0.30;;;;;;;28.12;49.30;101510.59;5032537;28;20489;-87
2022/08/09 07:25:16;;;;;;;0.28;0.28;;;;;;;28.26;48.39;101492.16;5032712;28;20462;-84
2022/08/09 07:27:42;;;;;;;0.52;0.52;;;;;;;28.56;48.08;101500.41;5033134;28;20024;-84
2022/08/09 07:30:08;;;;;;;0.43;0.35;;;;;;;28.66;48.42;101489.56;5032528;28;20029;-85
2022/08/09 07:32:34;;;;;;;0.30;0.30;;;;;;;28.75;48.29;101500.00;5033345;28;20024;-83
2022/08/09 07:35:01;;;;;;;0.30;0.30;;;;;;;28.97;47.46;101503.75;5048842;28;20486;-85
2022/08/09 07:37:27;;;;;;;0.20;0.20;;;;;;;29.09;45.96;101502.34;5032856;28;20031;-84
2022/08/09 07:39:52;;;;;;;0.40;0.40;;;;;;;29.07;46.88;101511.53;5032754;28;20017;-85
2022/08/09 07:42:18;;;;;;;0.40;0.40;;;;;;;29.08;46.62;101491.88;5031676;28;20033;-84
2022/08/09 07:44:43;;;;;;;0.55;0.50;;;;;;;29.29;45.95;101507.25;5015727;28;20036;-86
2022/08/09 07:47:09;;;;;;;0.30;0.30;;;;;;;29.38;46.00;101507.00;5031587;28;20036;-83
2022/08/09 07:49:34;;;;;;;0.50;0.30;;;;;;;29.09;45.86;101491.69;5030801;28;20414;-88
2022/08/09 07:52:00;;;;;;;0.30;0.30;;;;;;;29.15;46.98;101506.16;5032622;28;20065;-84
2022/08/09 07:54:29;;;;;;;0.82;0.60;;;;;;;29.18;46.45;101504.97;5049010;28;20029;-86
2022/08/09 07:56:55;;;;;;;0.43;0.40;;;;;;;29.29;46.43;101510.72;5032873;28;20075;-86
2022/08/09 07:59:20;;;;;;;0.30;0.30;;;;;;;29.27;44.60;101504.75;5047735;28;20110;-85
2022/08/09 08:01:46;;;;;;;0.68;0.40;;;;;;;29.32;43.64;101494.41;5048423;28;20029;-90
2022/08/09 08:04:11;;;;;;;0.20;0.20;;;;;;;29.51;44.33;101505.66;5043532;28;20045;-94
2022/08/09 08:06:37;;;;;;;0.30;0.25;;;;;;;29.53;43.26;101488.47;5012396;28;20536;-88
2022/08/09 08:09:03;;;;;;;0.30;0.30;;;;;;;29.69;43.70;101503.47;4996255;28;20536;-90
2022/08/09 08:11:28;;;;;;;0.30;0.30;;;;;;;29.67;43.30;101481.50;5012841;28;20156;-91
2022/08/09 08:13:54;;;;;;;0.47;0.47;;;;;;;29.87;43.06;101497.84;5027623;28;20095;-85
2022/08/09 08:16:20;;;;;;;0.45;0.45;;;;;;;29.77;42.84;101494.59;5026580;28;20068;-83
2022/08/09 08:18:46;;;;;;;0.30;0.30;;;;;;;29.79;42.89;101508.56;5014859;28;20080;-90
2022/08/09 08:21:11;;;;;;;0.32;0.32;;;;;;;29.64;43.32;101495.22;5030952;28;20025;-88
2022/08/09 08:23:37;;;;;;;0.40;0.40;;;;;;;29.81;42.90;101486.06;5041757;28;20030;-90
2022/08/09 08:26:02;;;;;;;0.47;0.38;;;;;;;29.76;42.75;101485.75;5022320;28;20563;-87
2022/08/09 08:28:28;;;;;;;0.50;0.50;;;;;;;29.78;41.90;101497.06;5029388;28;20025;-86
2022/08/09 08:30:53;;;;;;;0.65;0.65;;;;;;;29.80;42.10;101484.41;5022067;28;20032;-88
2022/08/09 08:33:19;;;;;;;0.40;0.40;;;;;;;29.91;41.65;101493.81;5030905;28;20078;-89
2022/08/09 08:35:44;;;;;;;0.40;0.40;;;;;;;30.00;41.55;101500.75;5031263;28;20416;-83
2022/08/09 08:38:10;;;;;;;0.20;0.20;;;;;;;30.00;41.33;101490.06;5032126;28;20414;-84
2022/08/09 08:40:35;;;;;;;0.20;0.20;;;;;;;30.16;41.90;101499.75;5017778;28;20040;-85
2022/08/09 08:43:02;;;;;;;0.30;0.30;;;;;;;30.39;41.34;101484.53;5028960;28;20410;-89
2022/08/09 08:45:37;;;;;;;0.30;0.30;;;;;;;30.44;40.50;101470.59;4995619;28;20029;-90
2022/08/09 08:48:04;;;;;;;0.30;0.30;;;;;;;30.70;40.71;101486.19;4995106;28;20145;-87
2022/08/09 08:50:29;;;;;;;0.20;0.20;;;;;;;30.67;38.92;101487.38;5009201;28;20406;-86
2022/08/09 08:52:55;;;;;;;0.20;0.20;;;;;;;30.78;40.24;101478.06;5028270;28;20025;-84
2022/08/09 08:55:20;;;;;;;0.40;0.40;;;;;;;30.90;39.93;101476.56;5033587;28;20483;-92
2022/08/09 08:57:46;;;;;;;0.70;0.40;;;;;;;31.05;39.35;101485.34;5014588;28;20029;-86
2022/08/09 09:00:12;;;;;;;0.52;0.52;;;;;;;31.07;39.67;101488.69;5029014;28;20442;-83
2022/08/09 09:02:38;;;;;;;0.40;0.40;;;;;;;30.98;39.32;101483.66;5030783;28;20017;-83
2022/08/09 09:05:04;;;;;;;0.57;0.57;;;;;;;30.90;39.55;101481.91;5031023;28;20034;-83
2022/08/09 09:07:30;;;;;;;0.30;0.30;;;;;;;30.73;39.84;101454.56;5014785;28;20111;-87
2022/08/09 09:09:57;;;;;;;0.93;0.70;;;;;;;30.96;39.93;101469.63;5030857;28;20045;-85
2022/08/09 09:12:28;;;;;;;0.50;0.50;;;;;;;30.82;40.10;101477.50;5030769;28;20068;-86
2022/08/09 09:14:53;;;;;;;0.30;0.30;;;;;;;30.74;40.74;101466.09;5031559;28;20029;-88
2022/08/09 09:17:19;;;;;;;0.20;0.20;;;;;;;30.64;40.98;101465.53;5031957;28;20087;-86
2022/08/09 09:19:45;;;;;;;0.30;0.30;;;;;;;30.68;40.62;101458.81;5032072;28;20465;-89
2022/08/09 09:22:15;;;;;;;0.30;0.30;;;;;;;30.79;40.26;101463.69;5031152;28;20087;-86
2022/08/09 09:24:45;;;;;;;0.40;0.40;;;;;;;30.66;40.85;101459.00;5022836;28;20034;-86
2022/08/09 09:27:13;;;;;;;0.40;0.40;;;;;;;30.53;41.46;101448.97;5029822;28;20057;-86
2022/08/09 09:29:40;;;;;;;0.30;0.30;;;;;;;30.65;40.48;101457.34;5037726;28;20532;-90
2022/08/09 09:32:06;;;;;;;0.52;0.52;;;;;;;30.72;41.40;101454.78;5024265;28;20029;-88
2022/08/09 09:34:32;;;;;;;0.25;0.25;;;;;;;30.62;41.06;101454.19;5030565;28;20058;-85
2022/08/09 09:36:58;;;;;;;0.77;0.77;;;;;;;30.94;40.77;101456.47;5015501;28;20076;-85
2022/08/09 09:39:24;;;;;;;0.35;0.35;;;;;;;30.95;40.60;101451.94;4998185;28;20029;-86
2022/08/09 09:41:50;;;;;;;0.43;0.43;;;;;;;30.81;40.36;101435.78;5014101;28;20557;-87
2022/08/09 09:44:25;;;;;;;0.57;0.55;;;;;;;30.81;40.16;101459.00;5014174;28;20033;-87
2022/08/09 09:46:55;;;;;;;0.47;0.47;;;;;;;30.81;40.82;101441.13;5020657;28;20104;-85
2022/08/09 09:49:21;;;;;;;0.40;0.40;;;;;;;31.11;39.94;101441.84;5036457;28;20116;-83
2022/08/09 09:51:47;;;;;;;0.70;0.70;;;;;;;30.99;40.10;101423.84;5049636;28;20029;-86
2022/08/09 09:54:16;;;;;;;0.40;0.40;;;;;;;31.29;39.38;101443.28;5050622;28;20025;-84
2022/08/09 09:56:42;;;;;;;0.30;0.30;;;;;;;31.48;39.55;101431.94;5033967;28;20021;-83
2022/08/09 09:59:09;;;;;;;0.40;0.40;;;;;;;31.63;37.91;101418.47;5045375;28;20029;-84
2022/08/09 10:01:35;;;;;;;0.40;0.40;;;;;;;31.78;37.90;101431.81;5013866;28;20033;-85
2022/08/09 10:04:00;;;;;;;0.63;0.63;;;;;;;31.75;39.80;101427.66;5029215;28;20045;-85
2022/08/09 10:06:27;;;;;;;0.55;0.38;;;;;;;31.92;38.45;101417.47;5047422;28;20095;-85
2022/08/09 10:09:01;;;;;;;0.60;0.60;;;;;;;31.73;38.23;101418.13;5050404;28;20040;-89
2022/08/09 10:11:28;;;;;;;0.45;0.45;;;;;;;31.84;38.50;101425.66;5035226;28;20517;-92
2022/08/09 10:13:54;;;;;;;0.50;0.50;;;;;;;32.22;38.29;101421.56;5018177;28;20185;-90
2022/08/09 10:16:30;;;;;;;0.57;0.57;;;;;;;32.55;36.74;101423.63;5050209;28;20495;-85
2022/08/09 10:19:04;;;;;;;0.43;0.43;;;;;;;32.37;37.54;101402.72;5032977;28;20021;-86
2022/08/09 10:21:29;;;;;;;0.50;0.50;;;;;;;32.85;37.34;101417.97;5013208;28;20032;-85
2022/08/09 10:23:55;;;;;;;0.40;0.40;;;;;;;32.73;36.42;101405.09;5046900;28;20056;-87
2022/08/09 10:26:22;;;;;;;0.60;0.60;;;;;;;32.73;36.86;101410.47;5023886;28;20170;-86
2022/08/09 10:28:47;;;;;;;0.55;0.55;;;;;;;32.93;37.09;101409.72;5027972;28;20036;-88
2022/08/09 10:31:13;;;;;;;0.73;0.73;;;;;;;33.06;36.33;101399.03;5048879;28;20037;-86
2022/08/09 10:33:39;;;;;;;0.82;0.50;;;;;;;32.98;35.93;101407.25;5032446;28;20108;-85
2022/08/09 10:36:06;;;;;;;0.40;0.40;;;;;;;32.91;36.06;101411.78;5047051;28;20505;-87
2022/08/09 10:38:31;;;;;;;0.40;0.40;;;;;;;33.08;36.08;101402.34;5031722;28;20417;-89
2022/08/09 10:40:57;;;;;;;0.63;0.63;;;;;;;33.20;33.45;101405.22;5049254;28;20111;-90
2022/08/09 10:43:23;;;;;;;0.30;0.30;;;;;;;33.10;33.98;101392.22;5032740;28;20092;-90
2022/08/09 10:45:49;;;;;;;0.30;0.30;;;;;;;33.38;33.34;101387.53;5024759;28;20036;-93
2022/08/09 10:48:27;;;;;;;0.40;0.40;;;;;;;33.49;33.07;101395.97;5040786;28;20052;-87
2022/08/09 10:51:16;;;;;;;0.60;0.60;;;;;;;33.41;33.61;101374.72;5028588;28;20048;-93
2022/08/09 10:54:09;;;;;;;0.60;0.60;;;;;;;33.87;32.84;101386.25;5030703;28;20066;-85
2022/08/09 10:56:36;;;;;;;0.68;0.68;;;;;;;33.72;32.64;101374.06;5029493;28;20105;-88
2022/08/09 10:59:22;;;;;;;0.30;0.30;;;;;;;33.81;32.11;101372.81;5028895;28;20033;-84
2022/08/09 11:01:48;;;;;;;0.40;0.40;;;;;;;33.61;33.07;101357.56;5022285;28;20124;-88
2022/08/09 11:04:21;;;;;;;0.50;0.50;;;;;;;33.91;33.34;101367.84;5046932;28;20051;-88
2022/08/09 11:06:48;;;;;;;0.30;0.30;;;;;;;33.99;32.26;101366.81;5030449;28;20053;-84
2022/08/09 11:09:18;;;;;;;0.35;0.35;;;;;;;33.73;32.71;101338.16;5027639;28;20083;-87
2022/08/09 11:11:53;;;;;;;0.45;0.45;;;;;;;34.05;32.71;101364.13;5047124;28;20059;-85
2022/08/09 11:14:34;;;;;;;0.35;0.35;;;;;;;34.20;33.11;101351.22;5037845;28;20056;-96
2022/08/09 11:17:23;;;;;;;0.75;0.73;;;;;;;34.27;32.90;101372.69;5014825;28;20029;-88
2022/08/09 11:19:50;;;;;;;0.40;0.40;;;;;;;34.27;33.12;101367.31;5031586;28;20046;-92
2022/08/09 11:22:16;;;;;;;0.57;0.57;;;;;;;34.16;32.36;101331.22;5032108;28;20029;-87
2022/08/09 11:24:57;;;;;;;0.47;0.47;;;;;;;34.31;32.44;101362.34;5011321;28;20029;-88
2022/08/09 11:27:33;;;;;;;0.30;0.30;;;;;;;34.52;32.09;101361.25;5028846;28;20029;-91
2022/08/09 11:29:59;;;;;;;0.80;0.80;;;;;;;34.25;31.85;101344.41;5030601;28;20023;-88
2022/08/09 11:32:50;;;;;;;0.30;0.30;;;;;;;34.58;31.84;101350.44;5036435;28;20036;-91
2022/08/09 11:35:44;;;;;;;0.30;0.30;;;;;;;34.62;32.29;101329.38;5043751;28;20037;-88
2022/08/09 11:38:24;;;;;;;0.77;0.77;;;;;;;34.68;31.47;101333.84;5033578;28;20298;-91
2022/08/09 11:40:50;;;;;;;0.32;0.32;;;;;;;34.95;30.97;101321.09;5016330;28;20025;-85
2022/08/09 11:43:36;;;;;;;0.32;0.32;;;;;;;35.02;31.29;101324.56;5040466;28;20029;-93
2022/08/09 11:46:03;;;;;;;0.30;0.30;;;;;;;34.63;31.32;101314.88;5035633;28;20069;-92
2022/08/09 11:48:30;;;;;;;0.40;0.40;;;;;;;34.22;31.31;101313.44;5028307;28;20064;-93
2022/08/09 11:50:56;;;;;;;0.55;0.55;;;;;;;34.17;32.54;101315.94;5028407;28;20305;-86
2022/08/09 11:53:28;;;;;;;0.50;0.50;;;;;;;34.39;31.78;101301.16;5035429;28;20040;-92
2022/08/09 11:56:12;;;;;;;0.52;0.52;;;;;;;34.71;30.55;101306.53;5030648;28;20120;-93
2022/08/09 11:58:50;;;;;;;0.50;0.50;;;;;;;34.46;30.95;101307.34;5032483;28;20021;-91
2022/08/09 12:01:17;;;;;;;0.40;0.40;;;;;;;34.44;30.57;101296.00;5027378;28;20033;-85
2022/08/09 12:03:43;;;;;;;0.30;0.30;;;;;;;34.61;30.94;101301.69;5047087;28;20112;-88
2022/08/09 12:06:14;;;;;;;0.40;0.40;;;;;;;34.69;30.41;101297.88;5031656;28;20040;-84
2022/08/09 12:08:51;;;;;;;0.30;0.30;;;;;;;34.50;30.11;101281.66;5032054;28;20028;-85
2022/08/09 12:11:18;;;;;;;0.32;0.32;;;;;;;34.63;30.66;101288.84;5016849;28;20037;-95
2022/08/09 12:13:46;;;;;;;0.32;0.32;;;;;;;34.94;29.52;101274.56;5047010;28;20029;-95
2022/08/09 12:16:37;;;;;;;0.40;0.40;;;;;;;35.09;28.96;101266.13;5027979;28;20029;-89
2022/08/09 12:19:04;;;;;;;0.63;0.63;;;;;;;35.15;28.71;101253.69;5029334;28;20030;-91
2022/08/09 12:21:33;;;;;;;0.47;0.47;;;;;;;35.06;29.56;101262.03;5010333;28;20410;-85
2022/08/09 12:24:01;;;;;;;0.68;0.68;;;;;;;35.27;29.50;101249.22;5028284;28;20026;-89
2022/08/09 12:26:39;;;;;;;0.40;0.40;;;;;;;35.31;29.41;101255.81;5032453;28;20021;-92
2022/08/09 12:29:05;;;;;;;0.45;0.45;;;;;;;35.07;29.45;101241.34;5642672;23;20085;-86
2022/08/09 12:31:30;;;;;;;0.52;0.52;;;;;;;35.15;28.51;101242.94;5062803;23;20145;-93
2022/08/09 12:33:56;;;;;;;0.30;0.30;;;;;;;35.24;28.78;101242.41;5010949;28;20068;-92
2022/08/09 12:36:23;;;;;;;0.30;0.30;;;;;;;35.24;27.00;101244.28;5032710;28;20042;-93
2022/08/09 12:38:49;;;;;;;0.70;0.70;;;;;;;35.26;27.57;101239.50;5018969;28;20037;-94
2022/08/09 12:41:16;;;;;;;0.50;0.50;;;;;;;35.37;26.96;101236.06;4984084;28;20060;-93
2022/08/09 12:43:41;;;;;;;0.35;0.35;;;;;;;35.41;25.48;101226.56;4997014;28;20037;-88
2022/08/09 12:46:07;;;;;;;0.30;0.30;;;;;;;35.14;26.07;101219.78;4992779;28;20406;-85
2022/08/09 12:48:32;;;;;;;0.40;0.40;;;;;;;34.93;26.51;101218.34;5023139;28;20037;-91
2022/08/09 12:50:58;;;;;;;0.30;0.30;;;;;;;35.02;27.43;101208.94;5000433;28;20034;-86
2022/08/09 12:53:36;;;;;;;0.35;0.35;;;;;;;35.28;27.71;101210.50;4998765;28;20483;-89
2022/08/09 12:56:18;;;;;;;0.40;0.40;;;;;;;34.93;26.64;101196.81;4996778;28;20426;-89
2022/08/09 12:59:09;;;;;;;0.52;0.52;;;;;;;34.38;26.50;101200.16;4976639;28;20033;-86
2022/08/09 13:01:34;;;;;;;0.32;0.32;;;;;;;34.03;27.06;101186.34;5011541;28;20065;-89
2022/08/09 13:04:05;;;;;;;0.40;0.40;;;;;;;34.32;27.33;101187.59;5029483;28;20026;-83
2022/08/09 13:06:41;;;;;;;0.47;0.47;;;;;;;34.24;26.28;101161.00;4997750;28;20556;-84
2022/08/09 13:09:08;;;;;;;0.40;0.40;;;;;;;34.47;27.52;101193.47;5012439;28;20137;-86
2022/08/09 13:11:54;;;;;;;0.60;0.60;;;;;;;34.76;27.43;101188.47;5009746;28;20036;-84
2022/08/09 13:14:23;;;;;;;0.50;0.50;;;;;;;34.67;26.96;101192.47;4996671;28;20053;-88
2022/08/09 13:16:53;;;;;;;0.38;0.38;;;;;;;34.63;26.54;101191.28;4994470;28;20018;-85
2022/08/09 13:19:25;;;;;;;0.73;0.73;;;;;;;34.70;26.95;101192.03;5015861;28;20029;-87
2022/08/09 13:22:15;;;;;;;0.38;0.38;;;;;;;34.68;26.89;101191.44;5011200;28;20025;-86
2022/08/09 13:25:09;;;;;;;0.40;0.40;;;;;;;34.52;27.19;101194.69;5029644;28;20033;-85
2022/08/09 13:27:38;;;;;;;0.50;0.40;;;;;;;34.65;27.27;101194.56;5029285;28;20052;-88
2022/08/09 13:30:05;;;;;;;0.30;0.30;;;;;;;34.46;27.77;101191.81;5014526;28;20025;-85
2022/08/09 13:32:53;;;;;;;0.50;0.50;;;;;;;34.46;27.61;101188.31;5019342;28;20054;-86
2022/08/09 13:35:23;;;;;;;0.35;0.35;;;;;;;34.33;27.67;101173.09;4996129;28;20030;-87
2022/08/09 13:37:49;;;;;;;0.30;0.30;;;;;;;34.10;26.96;101170.97;4995617;28;20022;-86
2022/08/09 13:40:15;;;;;;;0.43;0.43;;;;;;;33.99;27.47;101173.53;4994685;28;20057;-84
2022/08/09 13:42:40;;;;;;;0.30;0.30;;;;;;;34.11;27.08;101182.53;4995215;28;20524;-85
2022/08/09 13:45:07;;;;;;;0.50;0.50;;;;;;;34.16;26.06;101158.56;5011548;28;20575;-82
2022/08/09 13:47:32;;;;;;;0.28;0.28;;;;;;;34.06;26.22;101163.59;4994146;28;20041;-89
2022/08/09 13:50:02;;;;;;;0.30;0.30;;;;;;;33.89;27.07;101141.81;5017337;28;20095;-89
2022/08/09 13:52:29;;;;;;;0.38;0.38;;;;;;;34.15;26.38;101157.75;5009095;28;20065;-90
2022/08/09 13:54:55;;;;;;;0.30;0.30;;;;;;;33.99;26.16;101160.13;4995428;28;20072;-80
2022/08/09 13:57:20;;;;;;;0.40;0.40;;;;;;;34.12;25.79;101157.34;4994431;28;20034;-81
2022/08/09 13:59:46;;;;;;;0.70;0.70;;;;;;;33.93;25.58;101153.78;5010622;28;20041;-85
2022/08/09 14:02:11;;;;;;;0.35;0.35;;;;;;;33.83;26.38;101166.81;4994277;28;20029;-82
